Time;durP1;ratioP1;P1;durP2;ratioP2;P2;SDS_P1;SDS_P2;PMS_P1;PMS_P2;Temp;Humidity;BMP_temperature;BMP_pressure;BME280_temperature;BME280_humidity;BME280_pressure;Samples;Min_cycle;Max_cycle;Signal;HPM_P1;HPM_P2
2021/09/08 00:00:38;;;;;;;15.03;13.53;;;13.90;99.90;;;;;;4952990;28;20187;-87
2021/09/08 00:03:04;;;;;;;15.33;12.80;;;13.80;99.90;;;;;;4937992;28;20458;-87
2021/09/08 00:05:31;;;;;;;16.20;14.50;;;13.80;99.90;;;;;;4935488;28;20901;-88
2021/09/08 00:07:57;;;;;;;15.50;13.20;;;13.80;99.90;;;;;;4934499;28;20446;-87
2021/09/08 00:10:23;;;;;;;14.53;13.03;;;13.80;99.90;;;;;;4935622;28;20458;-88
2021/09/08 00:12:49;;;;;;;14.83;13.30;;;13.80;99.90;;;;;;4930341;28;20235;-88
2021/09/08 00:15:18;;;;;;;15.00;13.50;;;13.80;99.90;;;;;;4949880;28;20449;-87
2021/09/08 00:17:44;;;;;;;15.63;13.30;;;13.80;99.90;;;;;;4948709;28;20474;-87
2021/09/08 00:20:11;;;;;;;15.07;13.50;;;13.70;99.90;;;;;;4948702;28;20478;-87
2021/09/08 00:22:37;;;;;;;15.27;13.77;;;13.70;99.90;;;;;;4948875;28;20450;-87
2021/09/08 00:25:05;;;;;;;14.50;13.10;;;13.70;99.90;;;;;;4934905;28;20486;-88
2021/09/08 00:27:32;;;;;;;14.13;12.73;;;13.60;99.90;;;;;;4932877;28;20455;-87
2021/09/08 00:29:58;;;;;;;13.70;12.30;;;13.60;99.90;;;;;;4949167;28;20457;-87
2021/09/08 00:32:24;;;;;;;16.23;14.63;;;13.50;99.90;;;;;;4948860;28;20486;-87
2021/09/08 00:34:53;;;;;;;15.10;12.80;;;13.50;99.90;;;;;;4948407;28;20898;-87
2021/09/08 00:37:19;;;;;;;14.40;12.97;;;13.40;99.90;;;;;;4932046;28;20469;-87
2021/09/08 00:39:45;;;;;;;14.70;13.20;;;13.40;99.90;;;;;;4935759;28;20441;-87
2021/09/08 00:42:18;;;;;;;13.07;11.77;;;13.40;99.90;;;;;;4950525;28;20980;-87
2021/09/08 00:44:45;;;;;;;13.30;12.00;;;13.40;99.90;;;;;;4949204;28;20485;-88
2021/09/08 00:47:15;;;;;;;14.80;13.40;;;13.40;99.90;;;;;;4948613;28;20458;-88
2021/09/08 00:49:43;;;;;;;14.57;13.17;;;13.40;99.90;;;;;;4949895;28;20469;-88
2021/09/08 00:52:18;;;;;;;15.77;14.17;;;13.40;99.90;;;;;;4935180;28;20487;-88
2021/09/08 00:54:48;;;;;;;14.27;12.97;;;13.50;99.90;;;;;;4946249;28;20447;-88
2021/09/08 00:57:19;;;;;;;15.03;13.37;;;13.50;99.90;;;;;;4934859;28;21088;-87
2021/09/08 00:59:48;;;;;;;14.53;13.13;;;13.30;99.90;;;;;;4946561;28;20450;-88
2021/09/08 01:02:14;;;;;;;14.93;13.33;;;13.20;99.90;;;;;;4933998;28;20465;-87
2021/09/08 01:04:41;;;;;;;15.30;13.70;;;13.30;99.90;;;;;;4949468;28;20474;-87
2021/09/08 01:07:11;;;;;;;14.70;13.00;;;13.20;99.90;;;;;;4932386;28;20454;-87
2021/09/08 01:09:37;;;;;;;14.40;13.00;;;13.20;99.90;;;;;;4948398;28;20454;-87
2021/09/08 01:15:01;;;;;;;13.90;12.50;;;13.10;99.90;;;;;;4939725;28;20194;-87
2021/09/08 01:17:27;;;;;;;13.70;12.40;;;13.00;99.90;;;;;;4947233;28;20458;-87
2021/09/08 01:19:53;;;;;;;13.37;12.17;;;13.00;99.90;;;;;;4934142;28;20490;-87
2021/09/08 01:22:20;;;;;;;13.10;11.83;;;12.90;99.90;;;;;;4930449;28;20842;-87
2021/09/08 01:24:46;;;;;;;14.17;12.77;;;12.90;99.90;;;;;;4932357;28;20558;-87
2021/09/08 01:27:12;;;;;;;15.00;13.27;;;12.90;99.90;;;;;;4930278;28;21020;-87
2021/09/08 01:29:38;;;;;;;15.70;13.07;;;12.90;99.90;;;;;;4945668;28;20467;-87
2021/09/08 01:32:04;;;;;;;15.27;13.77;;;12.90;99.90;;;;;;4933755;28;20836;-87
2021/09/08 01:34:30;;;;;;;14.80;13.37;;;13.00;99.90;;;;;;4947317;28;20821;-87
2021/09/08 01:36:56;;;;;;;14.37;12.87;;;13.00;99.90;;;;;;4932623;28;20453;-87
2021/09/08 01:39:23;;;;;;;14.60;12.97;;;13.00;99.90;;;;;;4933649;28;20661;-87
2021/09/08 01:41:51;;;;;;;14.80;13.30;;;12.90;99.90;;;;;;4948426;28;20195;-87
2021/09/08 01:44:24;;;;;;;15.00;13.07;;;12.80;99.90;;;;;;4949035;28;20455;-87
2021/09/08 01:46:52;;;;;;;14.43;12.93;;;12.80;99.90;;;;;;4933087;28;20454;-87
2021/09/08 01:49:19;;;;;;;13.73;12.37;;;12.80;99.90;;;;;;4934136;28;20523;-88
2021/09/08 01:51:45;;;;;;;13.20;11.80;;;12.70;99.90;;;;;;4944968;28;20498;-88
2021/09/08 01:54:20;;;;;;;13.90;12.50;;;12.60;99.90;;;;;;4949521;28;20593;-88
2021/09/08 01:56:51;;;;;;;14.03;12.63;;;12.70;99.90;;;;;;4947117;28;20815;-87
2021/09/08 01:59:17;;;;;;;13.70;12.40;;;12.70;99.90;;;;;;4948165;28;20469;-87
2021/09/08 02:01:43;;;;;;;13.73;12.33;;;12.60;99.90;;;;;;4939152;28;20446;-87
2021/09/08 02:04:15;;;;;;;13.67;12.30;;;12.70;99.90;;;;;;4948953;28;20261;-87
2021/09/08 02:06:50;;;;;;;15.37;12.53;;;12.70;99.90;;;;;;4951232;28;20472;-87
2021/09/08 02:09:17;;;;;;;13.20;11.80;;;12.60;99.90;;;;;;4931109;28;20474;-87
2021/09/08 02:11:44;;;;;;;14.30;12.80;;;12.60;99.90;;;;;;4949472;28;20470;-87
2021/09/08 02:14:14;;;;;;;13.67;12.30;;;12.50;99.90;;;;;;4935406;28;20459;-87
2021/09/08 02:16:40;;;;;;;12.67;11.37;;;12.50;99.90;;;;;;4933733;28;20594;-87
2021/09/08 02:19:06;;;;;;;13.87;12.47;;;12.50;99.90;;;;;;4926112;28;20459;-87
2021/09/08 02:21:32;;;;;;;15.03;13.00;;;12.50;99.90;;;;;;4950909;28;20454;-88
2021/09/08 02:24:01;;;;;;;13.80;12.30;;;12.50;99.90;;;;;;4951209;28;21044;-87
2021/09/08 02:26:27;;;;;;;12.30;11.10;;;12.40;99.90;;;;;;4934118;28;20261;-87
2021/09/08 02:28:53;;;;;;;13.37;11.43;;;12.50;99.90;;;;;;4949541;28;21070;-87
2021/09/08 02:31:21;;;;;;;14.20;12.50;;;12.50;99.90;;;;;;4950057;28;20495;-88
2021/09/08 02:33:47;;;;;;;14.87;13.37;;;12.50;99.90;;;;;;4935772;28;20577;-88
2021/09/08 02:36:13;;;;;;;14.60;13.10;;;12.50;99.90;;;;;;4937447;28;20497;-88
2021/09/08 02:38:39;;;;;;;15.63;12.77;;;12.40;99.90;;;;;;4947041;28;20446;-87
2021/09/08 02:41:06;;;;;;;14.43;12.53;;;12.40;99.90;;;;;;4949266;28;20207;-88
2021/09/08 02:43:33;;;;;;;14.00;11.97;;;12.40;99.90;;;;;;4950197;28;22316;-88
2021/09/08 02:46:02;;;;;;;12.60;11.37;;;12.30;99.90;;;;;;4933961;28;20454;-87
2021/09/08 02:48:37;;;;;;;13.30;12.00;;;12.30;99.90;;;;;;4933951;28;21603;-87
2021/09/08 02:51:04;;;;;;;12.83;11.53;;;12.30;99.90;;;;;;4951614;28;21044;-86
2021/09/08 02:53:33;;;;;;;13.33;12.03;;;12.30;99.90;;;;;;4938789;28;20819;-87
2021/09/08 02:56:00;;;;;;;14.37;12.40;;;12.30;99.90;;;;;;4950560;28;20448;-87
2021/09/08 02:58:27;;;;;;;13.07;11.77;;;12.20;99.90;;;;;;4934576;28;20639;-87
2021/09/08 03:00:53;;;;;;;13.90;12.57;;;12.20;99.90;;;;;;4931171;28;20434;-87
2021/09/08 03:03:20;;;;;;;14.53;13.13;;;12.20;99.90;;;;;;4950448;28;20493;-87
2021/09/08 03:05:51;;;;;;;16.50;14.00;;;12.10;99.90;;;;;;4935437;28;20533;-87
2021/09/08 03:08:18;;;;;;;15.70;14.17;;;12.10;99.90;;;;;;4952362;28;20482;-87
2021/09/08 03:10:44;;;;;;;15.87;14.20;;;12.00;99.90;;;;;;4950489;28;20481;-87
2021/09/08 03:13:11;;;;;;;16.10;14.50;;;12.10;99.90;;;;;;4953197;28;20582;-87
2021/09/08 03:15:38;;;;;;;16.80;14.53;;;12.10;99.90;;;;;;4935840;28;20447;-87
2021/09/08 03:18:05;;;;;;;17.57;15.63;;;12.10;99.90;;;;;;4933696;28;21192;-87
2021/09/08 03:20:35;;;;;;;18.13;16.23;;;12.20;99.90;;;;;;4935210;28;20458;-87
2021/09/08 03:23:02;;;;;;;17.67;15.87;;;12.20;99.90;;;;;;4952234;28;20451;-87
2021/09/08 03:25:33;;;;;;;17.77;15.70;;;12.20;99.90;;;;;;4933196;28;20446;-87
2021/09/08 03:28:02;;;;;;;18.23;16.17;;;12.20;99.90;;;;;;4950517;28;20489;-87
2021/09/08 03:30:28;;;;;;;17.70;15.87;;;12.20;99.90;;;;;;4950735;28;20459;-87
2021/09/08 03:32:54;;;;;;;19.87;16.00;;;12.20;99.90;;;;;;4934217;28;20564;-87
2021/09/08 03:35:21;;;;;;;21.63;16.07;;;12.30;99.90;;;;;;4935833;28;20442;-88
2021/09/08 03:37:50;;;;;;;16.57;14.77;;;12.20;99.90;;;;;;4934063;28;20659;-87
2021/09/08 03:40:16;;;;;;;16.97;14.77;;;12.30;99.90;;;;;;4931864;28;20450;-88
2021/09/08 03:42:44;;;;;;;18.13;16.33;;;12.30;99.90;;;;;;4934691;28;20545;-87
2021/09/08 03:45:10;;;;;;;17.63;15.83;;;12.20;99.90;;;;;;4949058;28;20481;-87
2021/09/08 03:47:36;;;;;;;16.53;14.83;;;12.10;99.90;;;;;;4950753;28;20482;-88
2021/09/08 03:50:04;;;;;;;17.07;15.20;;;12.10;99.90;;;;;;4948631;28;20494;-88
2021/09/08 03:52:33;;;;;;;15.83;14.17;;;12.00;99.90;;;;;;4952713;28;20961;-88
2021/09/08 03:54:58;;;;;;;17.10;15.30;;;11.90;99.90;;;;;;4950518;28;20446;-88
2021/09/08 03:57:25;;;;;;;17.70;15.80;;;11.90;99.90;;;;;;4944672;28;21978;-87
2021/09/08 03:59:50;;;;;;;17.03;15.20;;;11.90;99.90;;;;;;4930841;28;20439;-87
2021/09/08 04:02:20;;;;;;;17.63;15.73;;;11.90;99.90;;;;;;4947681;28;20533;-88
2021/09/08 04:04:49;;;;;;;18.70;16.57;;;11.90;99.90;;;;;;4949419;28;20331;-88
2021/09/08 04:07:14;;;;;;;17.60;15.80;;;11.80;99.90;;;;;;4953677;28;20835;-87
2021/09/08 04:09:40;;;;;;;17.33;15.53;;;11.80;99.90;;;;;;4932771;28;20446;-87
2021/09/08 04:12:06;;;;;;;18.67;16.70;;;11.70;99.90;;;;;;4948170;28;20239;-87
2021/09/08 04:14:35;;;;;;;18.83;16.53;;;11.60;99.90;;;;;;4955206;28;21376;-87
2021/09/08 04:17:01;;;;;;;16.90;14.90;;;11.70;99.90;;;;;;4939753;28;20482;-87
2021/09/08 04:19:27;;;;;;;18.93;15.30;;;11.80;99.90;;;;;;4934150;28;22353;-86
2021/09/08 04:21:53;;;;;;;17.43;15.40;;;11.80;99.90;;;;;;4938277;28;21015;-86
2021/09/08 04:24:19;;;;;;;15.80;14.20;;;11.70;99.90;;;;;;4947168;28;20685;-83
2021/09/08 04:26:45;;;;;;;16.30;14.63;;;11.80;99.90;;;;;;4932090;28;21297;-85
2021/09/08 04:29:16;;;;;;;16.23;14.63;;;11.90;99.90;;;;;;4948572;28;20859;-84
2021/09/08 04:31:49;;;;;;;17.27;14.53;;;11.80;99.90;;;;;;4935202;28;20265;-84
2021/09/08 04:34:15;;;;;;;16.33;14.70;;;11.70;99.90;;;;;;4947361;28;20482;-86
2021/09/08 04:36:41;;;;;;;16.47;14.60;;;11.70;99.90;;;;;;4937898;28;20455;-84
2021/09/08 04:39:07;;;;;;;16.10;14.40;;;11.70;99.90;;;;;;4942309;28;20190;-84
2021/09/08 04:41:32;;;;;;;16.80;14.87;;;11.70;99.90;;;;;;4932628;28;20179;-84
2021/09/08 04:43:58;;;;;;;16.77;14.37;;;11.60;99.90;;;;;;4935275;28;20462;-84
2021/09/08 04:46:24;;;;;;;17.60;15.17;;;11.70;99.90;;;;;;4948634;28;20200;-86
2021/09/08 04:48:51;;;;;;;17.47;15.40;;;11.70;99.90;;;;;;4957441;28;20556;-86
2021/09/08 04:51:17;;;;;;;17.33;15.23;;;11.80;99.90;;;;;;4943300;28;20285;-87
2021/09/08 04:53:45;;;;;;;21.33;18.07;;;11.90;99.90;;;;;;4931073;28;20546;-88
2021/09/08 04:56:18;;;;;;;18.87;16.87;;;11.80;99.90;;;;;;4941371;28;20477;-90
2021/09/08 04:58:44;;;;;;;16.80;14.57;;;11.70;99.90;;;;;;4921164;28;20978;-89
2021/09/08 05:01:13;;;;;;;17.60;15.13;;;11.70;99.90;;;;;;4943909;28;20438;-90
2021/09/08 05:03:39;;;;;;;17.50;14.03;;;11.70;99.90;;;;;;4926559;29;20183;-88
2021/09/08 05:06:08;;;;;;;20.03;17.83;;;11.70;99.90;;;;;;4945583;28;20439;-87
2021/09/08 05:08:35;;;;;;;16.70;14.90;;;11.70;99.90;;;;;;4946406;28;20509;-89
2021/09/08 05:11:29;;;;;;;18.30;16.40;;;11.70;99.90;;;;;;4943471;28;20450;-88
2021/09/08 05:13:56;;;;;;;20.40;18.27;;;11.70;99.90;;;;;;4956865;28;20455;-89
2021/09/08 05:16:28;;;;;;;20.10;18.00;;;11.70;99.90;;;;;;4960566;28;20790;-89
2021/09/08 05:18:57;;;;;;;22.73;16.07;;;11.70;99.90;;;;;;4943166;28;20458;-89
2021/09/08 05:21:23;;;;;;;20.80;16.10;;;11.80;99.90;;;;;;4943916;28;20459;-86
2021/09/08 05:23:48;;;;;;;18.00;16.10;;;11.80;99.90;;;;;;4958147;28;20590;-89
2021/09/08 05:26:14;;;;;;;18.27;16.37;;;11.80;99.90;;;;;;4946653;28;20653;-89
2021/09/08 05:28:41;;;;;;;19.27;16.00;;;11.80;99.90;;;;;;4943700;28;20246;-88
2021/09/08 05:31:07;;;;;;;18.83;16.03;;;11.80;99.90;;;;;;4948856;28;22354;-88
2021/09/08 05:33:36;;;;;;;18.50;16.57;;;11.80;99.90;;;;;;4945520;28;20522;-90
2021/09/08 05:36:14;;;;;;;;;;;;;;;;;;;;;
2021/09/08 05:38:41;;;;;;;17.13;15.33;;;11.90;99.90;;;;;;4942439;29;20456;-90
2021/09/08 05:41:09;;;;;;;17.47;15.57;;;12.00;99.90;;;;;;4959510;28;20450;-89
2021/09/08 05:43:35;;;;;;;20.30;16.93;;;12.10;99.90;;;;;;4961601;28;20434;-89
2021/09/08 05:46:01;;;;;;;18.77;16.80;;;12.20;99.90;;;;;;4943374;28;20443;-89
2021/09/08 05:48:27;;;;;;;20.00;16.57;;;12.30;99.90;;;;;;4944122;28;20450;-89
2021/09/08 05:50:52;;;;;;;26.30;15.37;;;12.40;99.90;;;;;;4945325;28;20474;-89
2021/09/08 05:53:28;;;;;;;20.93;16.30;;;12.60;99.90;;;;;;4936006;28;21189;-89
2021/09/08 05:55:56;;;;;;;19.53;16.03;;;12.60;99.90;;;;;;4938098;28;20191;-91
2021/09/08 05:58:22;;;;;;;18.13;16.10;;;12.70;99.90;;;;;;4939865;28;21730;-86
2021/09/08 06:00:48;;;;;;;19.27;16.20;;;12.80;99.90;;;;;;4932096;28;20529;-91
2021/09/08 06:03:13;;;;;;;18.03;16.00;;;12.80;99.90;;;;;;4939104;28;20466;-88
2021/09/08 06:05:39;;;;;;;21.57;17.40;;;13.00;99.90;;;;;;4946361;28;20779;-89
2021/09/08 06:08:05;;;;;;;17.90;16.03;;;13.00;99.90;;;;;;4943842;28;20187;-90
2021/09/08 06:10:34;;;;;;;17.87;16.13;;;13.00;99.90;;;;;;4944102;28;20612;-90
2021/09/08 06:13:03;;;;;;;18.87;16.73;;;13.10;99.90;;;;;;4942504;28;20478;-89
2021/09/08 06:15:33;;;;;;;19.17;15.10;;;13.10;99.90;;;;;;4943706;28;20457;-90
2021/09/08 06:18:06;;;;;;;19.50;17.47;;;13.20;99.90;;;;;;4943833;28;20461;-90
2021/09/08 06:20:33;;;;;;;17.47;15.73;;;13.40;99.90;;;;;;4948118;28;20536;-91
2021/09/08 06:23:02;;;;;;;18.00;16.10;;;13.50;99.90;;;;;;4941798;28;20458;-93
2021/09/08 06:25:40;;;;;;;20.97;17.57;;;13.60;99.90;;;;;;4959442;28;20434;-93
2021/09/08 06:28:09;;;;;;;17.70;16.00;;;13.70;99.90;;;;;;4944347;28;20444;-92
2021/09/08 06:30:38;;;;;;;18.13;15.23;;;13.80;99.90;;;;;;4937873;28;20462;-89
2021/09/08 06:33:06;;;;;;;17.83;15.93;;;14.00;99.90;;;;;;4958338;28;20480;-91
2021/09/08 06:35:40;;;;;;;18.07;15.87;;;14.10;99.90;;;;;;4950238;28;20513;-91
2021/09/08 06:38:06;;;;;;;18.27;16.33;;;14.30;99.90;;;;;;4964212;28;20457;-92
2021/09/08 06:40:32;;;;;;;16.07;14.37;;;14.50;99.90;;;;;;4944687;28;20460;-90
2021/09/08 06:42:59;;;;;;;16.87;15.17;;;14.70;99.90;;;;;;4962959;28;20470;-88
2021/09/08 06:45:34;;;;;;;16.03;14.43;;;14.70;99.90;;;;;;4946602;28;20533;-91
2021/09/08 06:48:36;;;;;;;16.60;14.83;;;14.90;99.90;;;;;;4947675;28;20461;-93
2021/09/08 06:51:23;;;;;;;;;;;;;;;;;;;;;
2021/09/08 06:53:49;;;;;;;16.57;15.00;;;15.20;99.90;;;;;;4948646;28;20480;-91
2021/09/08 06:59:45;;;;;;;17.40;15.60;;;15.60;99.90;;;;;;4903384;29;20696;-91
2021/09/08 07:02:18;;;;;;;19.90;15.33;;;15.70;99.90;;;;;;4942850;28;20480;-91
2021/09/08 07:04:53;;;;;;;16.13;14.47;;;15.70;99.90;;;;;;4946811;28;20952;-94
2021/09/08 07:07:44;;;;;;;17.27;15.43;;;15.90;99.90;;;;;;4948447;28;20529;-90
2021/09/08 07:10:42;;;;;;;14.57;13.13;;;15.90;99.90;;;;;;4958565;28;20473;-92
2021/09/08 07:13:28;;;;;;;15.47;13.87;;;16.00;99.90;;;;;;4942980;28;20475;-92
2021/09/08 07:15:56;;;;;;;14.77;13.23;;;16.10;99.90;;;;;;4943032;28;20449;-91
2021/09/08 07:18:21;;;;;;;13.10;11.83;;;16.20;99.90;;;;;;4945326;28;20220;-92
2021/09/08 07:20:50;;;;;;;14.97;13.43;;;16.20;99.90;;;;;;4944531;28;20446;-93
2021/09/08 07:23:34;;;;;;;14.47;12.97;;;16.30;99.90;;;;;;4959776;28;20202;-95
2021/09/08 07:26:16;;;;;;;13.20;12.00;;;16.50;99.90;;;;;;4947568;28;21039;-93
2021/09/08 07:29:06;;;;;;;16.00;13.47;;;16.70;99.90;;;;;;4945077;28;20527;-93
2021/09/08 07:31:57;;;;;;;14.13;12.73;;;16.70;99.90;;;;;;4946423;28;20516;-94
2021/09/08 07:34:23;;;;;;;12.47;10.90;;;16.80;99.90;;;;;;4945338;28;20553;-95
2021/09/08 07:36:55;;;;;;;14.13;12.70;;;16.90;99.90;;;;;;4947391;28;20526;-95
2021/09/08 07:39:25;;;;;;;14.03;12.57;;;17.00;99.90;;;;;;4941192;28;20207;-93
2021/09/08 07:41:51;;;;;;;12.20;11.03;;;17.10;99.90;;;;;;4943933;28;20501;-93
2021/09/08 07:44:16;;;;;;;12.63;11.40;;;17.20;99.90;;;;;;4945194;28;20470;-92
2021/09/08 07:46:45;;;;;;;13.27;11.90;;;17.30;99.90;;;;;;4943603;29;20218;-93
2021/09/08 07:49:11;;;;;;;12.47;10.83;;;17.40;99.90;;;;;;4960398;28;20234;-93
2021/09/08 07:51:37;;;;;;;13.17;11.63;;;17.50;99.90;;;;;;4947700;28;20535;-91
2021/09/08 07:54:03;;;;;;;12.67;11.47;;;17.60;99.90;;;;;;4941687;28;20883;-91
2021/09/08 07:56:29;;;;;;;13.53;12.23;;;17.80;99.90;;;;;;4945175;28;20594;-95
2021/09/08 07:58:57;;;;;;;13.40;12.00;;;17.90;99.90;;;;;;4941646;28;20561;-91
2021/09/08 08:01:26;;;;;;;15.03;11.63;;;18.00;99.90;;;;;;4938916;28;20183;-93
2021/09/08 08:03:51;;;;;;;15.30;13.67;;;18.10;99.90;;;;;;4947076;28;20442;-92
2021/09/08 08:06:17;;;;;;;13.43;12.03;;;18.20;99.90;;;;;;4956168;28;20451;-91
2021/09/08 08:08:46;;;;;;;12.83;11.53;;;18.30;99.90;;;;;;4957139;28;20535;-92
2021/09/08 08:11:11;;;;;;;13.53;12.23;;;18.40;99.90;;;;;;4946308;28;20206;-92
2021/09/08 08:13:47;;;;;;;13.63;11.57;;;18.50;99.90;;;;;;4943280;28;20474;-91
2021/09/08 08:16:16;;;;;;;13.20;11.90;;;18.50;99.90;;;;;;4946775;28;20439;-92
2021/09/08 08:24:14;;;;;;;12.73;11.43;;;19.00;99.90;;;;;;4942931;28;21167;-93
2021/09/08 08:29:13;;;;;;;11.60;10.40;;;19.30;99.90;;;;;;4945896;28;20194;-91
2021/09/08 08:31:39;;;;;;;12.70;10.40;;;19.50;99.90;;;;;;4959285;28;20836;-91
2021/09/08 08:34:04;;;;;;;11.60;9.87;;;19.70;99.90;;;;;;4943908;28;20203;-92
2021/09/08 08:36:35;;;;;;;12.20;11.00;;;19.70;99.90;;;;;;4931270;28;20206;-93
2021/09/08 08:39:00;;;;;;;11.80;10.70;;;19.80;99.90;;;;;;4939543;28;20647;-91
2021/09/08 08:41:26;;;;;;;11.90;10.67;;;20.00;99.90;;;;;;4938341;28;20462;-92
2021/09/08 08:43:52;;;;;;;11.63;10.43;;;20.00;99.90;;;;;;4940309;28;20194;-92
2021/09/08 08:46:29;;;;;;;13.67;10.73;;;20.10;99.90;;;;;;4940094;28;20187;-93
2021/09/08 08:50:14;;;;;;;;;;;;;;;;;;;;;
2021/09/08 08:52:40;;;;;;;10.77;9.30;;;20.30;99.90;;;;;;4938770;28;20561;-93
2021/09/08 08:55:08;;;;;;;11.90;10.77;;;20.50;99.90;;;;;;4907876;29;20533;-94
2021/09/08 08:57:58;;;;;;;;;;;;;;;;;;;;;
2021/09/08 09:00:28;;;;;;;11.20;10.00;;;20.70;99.90;;;;;;4937388;28;20458;-93
2021/09/08 09:02:57;;;;;;;10.97;9.17;;;20.90;99.90;;;;;;4941306;28;20471;-93
2021/09/08 09:05:31;;;;;;;10.23;9.13;;;21.00;99.70;;;;;;4937717;28;20956;-92
2021/09/08 09:07:57;;;;;;;10.90;9.90;;;21.00;99.30;;;;;;4945901;28;20493;-94
2021/09/08 09:10:38;;;;;;;17.33;15.80;;;21.10;99.90;;;;;;4947264;28;20572;-93
2021/09/08 09:13:08;;;;;;;10.20;9.20;;;21.50;99.40;;;;;;4955159;28;20937;-94
2021/09/08 09:16:12;;;;;;;10.67;9.77;;;21.80;98.60;;;;;;4942184;28;20463;-95
2021/09/08 09:18:56;;;;;;;10.13;9.10;;;22.00;98.70;;;;;;4942807;28;20522;-93
2021/09/08 09:21:37;;;;;;;11.80;9.10;;;22.00;98.10;;;;;;4928789;29;20450;-94
2021/09/08 09:28:26;;;;;;;10.57;9.47;;;22.10;97.90;;;;;;4893337;28;20822;-92
2021/09/08 09:31:05;;;;;;;;;;;;;;;;;;;;;
2021/09/08 09:33:33;;;;;;;9.40;8.50;;;22.30;98.40;;;;;;4940636;29;21034;-90
2021/09/08 09:36:17;;;;;;;10.57;9.07;;;22.50;97.40;;;;;;4957924;28;20518;-91
2021/09/08 09:39:15;;;;;;;12.20;9.13;;;22.80;96.20;;;;;;4938002;28;20450;-89
2021/09/08 09:42:34;;;;;;;;;;;;;;;;;;;;;
2021/09/08 09:48:19;;;;;;;9.90;8.93;;;23.00;96.30;;;;;;4910974;28;20651;-89
2021/09/08 09:50:46;;;;;;;10.00;9.10;;;23.20;95.40;;;;;;4938164;28;20469;-92
2021/09/08 09:56:22;;;;;;;10.10;9.20;;;23.60;97.30;;;;;;4933485;28;20459;-90
2021/09/08 09:58:51;;;;;;;10.43;9.53;;;23.60;95.70;;;;;;4957262;28;20446;-93
2021/09/08 10:01:20;;;;;;;10.10;9.13;;;23.60;95.20;;;;;;4918869;28;20461;-95
2021/09/08 10:04:18;;;;;;;9.67;8.87;;;23.70;95.40;;;;;;4935155;28;20509;-93
2021/09/08 10:10:34;;;;;;;10.10;9.20;;;24.10;95.20;;;;;;4910516;28;20601;-89
2021/09/08 10:13:38;;;;;;;9.47;8.60;;;24.20;95.10;;;;;;4936770;28;20470;-91
2021/09/08 10:16:24;;;;;;;9.23;8.43;;;24.30;95.30;;;;;;4936714;28;20485;-93
2021/09/08 10:18:50;;;;;;;9.07;8.37;;;24.60;94.40;;;;;;4954623;28;20904;-94
2021/09/08 10:21:20;;;;;;;9.07;8.17;;;24.50;93.10;;;;;;4941929;28;20459;-91
2021/09/08 10:24:03;;;;;;;10.80;9.50;;;24.80;94.10;;;;;;4937816;29;20476;-92
2021/09/08 10:26:34;;;;;;;11.47;9.37;;;25.00;92.90;;;;;;4954107;28;20761;-92
2021/09/08 10:29:29;;;;;;;9.37;8.57;;;25.20;93.90;;;;;;4954396;28;20985;-94
2021/09/08 10:31:59;;;;;;;9.53;8.70;;;25.40;93.20;;;;;;4953170;28;20470;-93
2021/09/08 10:34:30;;;;;;;9.30;8.40;;;25.40;92.30;;;;;;4954593;28;20457;-93
2021/09/08 10:36:57;;;;;;;9.20;8.40;;;25.70;92.30;;;;;;4916426;29;20560;-92
2021/09/08 10:39:26;;;;;;;9.27;8.40;;;25.80;92.70;;;;;;4938278;28;20597;-93
2021/09/08 10:41:54;;;;;;;8.83;8.03;;;25.70;92.00;;;;;;4933846;28;20696;-90
2021/09/08 10:44:41;;;;;;;9.37;8.57;;;25.60;92.50;;;;;;4953502;28;20890;-92
2021/09/08 10:47:07;;;;;;;11.03;8.30;;;25.70;92.80;;;;;;4956202;28;21047;-89
2021/09/08 10:49:36;;;;;;;12.87;11.77;;;25.70;91.80;;;;;;4941336;28;20789;-91
2021/09/08 10:52:39;;;;;;;10.00;9.20;;;25.80;93.30;;;;;;4953190;28;20219;-91
2021/09/08 10:55:10;;;;;;;9.17;8.37;;;25.60;92.30;;;;;;4929450;28;20472;-91
2021/09/08 10:57:49;;;;;;;9.50;8.70;;;25.60;91.20;;;;;;4952686;28;20553;-92
2021/09/08 11:00:21;;;;;;;9.43;8.53;;;25.60;91.80;;;;;;4940591;28;20462;-95
2021/09/08 11:02:46;;;;;;;8.93;8.13;;;25.90;91.80;;;;;;4955801;28;20559;-91
2021/09/08 11:05:13;;;;;;;9.30;8.40;;;26.10;90.40;;;;;;4940395;28;20526;-92
2021/09/08 11:07:39;;;;;;;10.20;9.40;;;26.00;92.00;;;;;;4938124;28;20193;-92
2021/09/08 11:10:06;;;;;;;8.70;7.90;;;26.10;91.80;;;;;;4951478;28;21142;-93
2021/09/08 11:12:55;;;;;;;9.00;8.20;;;26.40;91.90;;;;;;4940543;28;20482;-92
2021/09/08 11:15:38;;;;;;;8.10;7.50;;;26.60;91.50;;;;;;4943493;28;21501;-92
2021/09/08 11:18:12;;;;;;;8.67;7.90;;;26.60;90.80;;;;;;4942941;28;20458;-90
2021/09/08 11:20:38;;;;;;;8.47;7.67;;;26.70;88.60;;;;;;4930840;28;20455;-89
2021/09/08 11:23:09;;;;;;;8.70;8.00;;;26.90;91.10;;;;;;4938054;28;20446;-91
2021/09/08 11:25:43;;;;;;;9.30;8.20;;;26.40;88.10;;;;;;4952425;28;20533;-90
2021/09/08 11:28:11;;;;;;;8.50;7.73;;;26.30;88.00;;;;;;4935874;28;20771;-90
2021/09/08 11:30:39;;;;;;;8.23;7.63;;;26.60;89.10;;;;;;4940094;28;20454;-89
2021/09/08 11:33:13;;;;;;;8.60;7.87;;;26.90;88.00;;;;;;4936682;28;20906;-93
2021/09/08 11:35:44;;;;;;;8.40;7.70;;;27.00;90.50;;;;;;4955379;28;20447;-92
2021/09/08 11:38:20;;;;;;;7.70;7.00;;;26.90;87.40;;;;;;4936158;28;20560;-92
2021/09/08 11:41:05;;;;;;;8.00;7.30;;;26.90;85.30;;;;;;4940614;29;20446;-92
2021/09/08 11:43:40;;;;;;;8.70;8.00;;;27.10;84.70;;;;;;4938253;29;20454;-89
2021/09/08 11:46:35;;;;;;;8.63;7.27;;;27.20;81.80;;;;;;4952849;28;20505;-92
2021/09/08 11:49:07;;;;;;;9.20;8.50;;;27.40;81.20;;;;;;4951352;28;20561;-88
2021/09/08 11:51:37;;;;;;;8.90;8.10;;;27.40;85.20;;;;;;4939346;28;20458;-94
2021/09/08 11:54:07;;;;;;;8.77;7.97;;;27.60;88.30;;;;;;4955764;28;20528;-91
2021/09/08 11:56:35;;;;;;;8.80;7.97;;;27.80;83.90;;;;;;4938299;28;20443;-90
2021/09/08 11:59:07;;;;;;;8.20;7.60;;;27.70;87.90;;;;;;4938294;28;20458;-90
2021/09/08 12:01:40;;;;;;;8.10;7.50;;;27.70;83.00;;;;;;4955417;28;20455;-94
2021/09/08 12:04:09;;;;;;;8.07;7.37;;;27.70;83.50;;;;;;4938275;28;20446;-90
2021/09/08 12:07:03;;;;;;;8.33;7.53;;;27.60;82.50;;;;;;4948160;28;20470;-91
2021/09/08 12:09:43;;;;;;;7.90;7.03;;;27.80;84.50;;;;;;4929181;28;21021;-92
2021/09/08 12:12:18;;;;;;;7.73;7.13;;;27.70;82.80;;;;;;4939450;28;20848;-92
2021/09/08 12:14:46;;;;;;;7.70;7.00;;;27.70;83.20;;;;;;4942126;28;20456;-90
2021/09/08 12:17:21;;;;;;;8.03;7.23;;;27.80;81.50;;;;;;4939961;28;20450;-93
2021/09/08 12:19:56;;;;;;;8.63;7.93;;;27.90;83.30;;;;;;4939396;28;21107;-91
2021/09/08 12:22:27;;;;;;;7.83;7.17;;;27.90;80.70;;;;;;4948653;28;20812;-94
2021/09/08 12:24:58;;;;;;;8.00;7.30;;;28.00;85.50;;;;;;4934720;28;20614;-92
2021/09/08 12:27:32;;;;;;;7.27;6.57;;;27.90;81.40;;;;;;4953921;28;20451;-93
2021/09/08 12:29:58;;;;;;;7.80;7.20;;;27.90;81.40;;;;;;4937050;29;20484;-91
2021/09/08 12:32:51;;;;;;;7.57;6.97;;;28.00;80.80;;;;;;4937888;28;20629;-92
2021/09/08 12:35:41;;;;;;;8.00;7.27;;;28.40;74.80;;;;;;4935879;29;20450;-90
2021/09/08 12:38:41;;;;;;;7.73;6.90;;;28.50;80.40;;;;;;4950737;28;20529;-92
2021/09/08 12:41:29;;;;;;;7.80;7.10;;;28.30;79.90;;;;;;4917545;28;20477;-93
2021/09/08 12:43:55;;;;;;;8.27;7.63;;;28.20;79.30;;;;;;4950356;28;20453;-93
2021/09/08 12:46:45;;;;;;;7.50;6.80;;;28.30;77.10;;;;;;4940413;28;20450;-92
2021/09/08 12:49:26;;;;;;;8.07;7.47;;;28.40;77.10;;;;;;4943556;29;20446;-90
2021/09/08 12:51:53;;;;;;;7.90;7.30;;;28.60;77.90;;;;;;4953361;28;20470;-92
2021/09/08 12:54:21;;;;;;;12.83;6.90;;;28.00;80.00;;;;;;4936761;28;20800;-92
2021/09/08 12:56:50;;;;;;;8.07;7.27;;;28.00;79.00;;;;;;4937715;28;20473;-91
2021/09/08 12:59:23;;;;;;;7.50;6.90;;;28.20;81.70;;;;;;4937504;28;20497;-92
2021/09/08 13:01:53;;;;;;;6.93;6.43;;;28.20;81.60;;;;;;4930528;28;21073;-92
2021/09/08 13:04:21;;;;;;;7.90;7.20;;;28.40;77.60;;;;;;4953446;28;21038;-92
2021/09/08 13:06:50;;;;;;;7.57;7.00;;;28.40;75.80;;;;;;4938215;28;20462;-91
2021/09/08 13:09:17;;;;;;;7.90;7.10;;;28.70;77.70;;;;;;4945704;28;20450;-91
2021/09/08 13:11:43;;;;;;;6.60;6.00;;;29.20;75.60;;;;;;4937445;28;20552;-92
2021/09/08 13:14:09;;;;;;;7.50;6.83;;;29.20;73.50;;;;;;4946766;28;21316;-93
2021/09/08 13:16:37;;;;;;;8.10;7.40;;;29.20;75.30;;;;;;4933014;28;20533;-92
2021/09/08 13:19:04;;;;;;;7.87;7.20;;;29.10;72.70;;;;;;4937245;28;20836;-92
2021/09/08 13:21:32;;;;;;;8.13;7.33;;;29.10;73.60;;;;;;4932903;28;20446;-93
2021/09/08 13:24:00;;;;;;;7.60;7.00;;;29.30;72.50;;;;;;4935717;28;20462;-92
2021/09/08 13:26:26;;;;;;;7.70;6.70;;;29.40;69.40;;;;;;4934844;28;20454;-91
2021/09/08 13:28:52;;;;;;;7.73;7.03;;;29.50;72.80;;;;;;4948654;28;21008;-91